sensor_id;sensor_type;location;lat;lon;timestamp;pressure;altitude;pressure_sealevel;temperature;humidity
28456;BME280;15682;56.742;38.866;2023-05-13T00:01:23;99930.0;;;7.6;83.4
28456;BME280;15682;56.742;38.866;2023-05-13T00:03:23;99930.0;;;7.4;83.4
28456;BME280;15682;56.742;38.866;2023-05-13T00:05:24;99930.0;;;7.3;84.2
28456;BME280;15682;56.742;38.866;2023-05-13T00:07:24;99930.0;;;7.2;84.0
28456;BME280;15682;56.742;38.866;2023-05-13T00:09:24;99930.0;;;7.2;84.0
28456;BME280;15682;56.742;38.866;2023-05-13T00:11:24;99930.0;;;7.1;84.0
28456;BME280;15682;56.742;38.866;2023-05-13T00:13:24;99930.0;;;7.1;84.0
28456;BME280;15682;56.742;38.866;2023-05-13T00:15:24;99930.0;;;7.1;84.0
28456;BME280;15682;56.742;38.866;2023-05-13T00:17:24;99930.0;;;7.1;84.4
28456;BME280;15682;56.742;38.866;2023-05-13T00:19:24;99930.0;;;7.1;84.4
28456;BME280;15682;56.742;38.866;2023-05-13T00:21:25;99930.0;;;7.1;84.4
28456;BME280;15682;56.742;38.866;2023-05-13T00:23:25;99930.0;;;7.1;84.4
28456;BME280;15682;56.742;38.866;2023-05-13T00:25:25;99930.0;;;7.0;85.0
28456;BME280;15682;56.742;38.866;2023-05-13T00:27:25;99930.0;;;7.0;84.9
28456;BME280;15682;56.742;38.866;2023-05-13T00:29:25;99940.0;;;7.0;84.9
28456;BME280;15682;56.742;38.866;2023-05-13T00:31:25;99940.0;;;7.0;84.5
28456;BME280;15682;56.742;38.866;2023-05-13T00:33:25;99940.0;;;6.8;84.6
28456;BME280;15682;56.742;38.866;2023-05-13T00:35:25;99940.0;;;6.8;85.2
28456;BME280;15682;56.742;38.866;2023-05-13T00:37:25;99940.0;;;6.8;85.6
28456;BME280;15682;56.742;38.866;2023-05-13T00:39:25;99940.0;;;6.8;84.6
28456;BME280;15682;56.742;38.866;2023-05-13T00:41:26;99940.0;;;6.8;85.3
28456;BME280;15682;56.742;38.866;2023-05-13T00:43:26;99940.0;;;6.7;85.3
28456;BME280;15682;56.742;38.866;2023-05-13T00:45:26;99940.0;;;6.7;85.3
28456;BME280;15682;56.742;38.866;2023-05-13T00:47:26;99940.0;;;6.7;85.9
28456;BME280;15682;56.742;38.866;2023-05-13T00:49:26;99940.0;;;6.6;85.5
28456;BME280;15682;56.742;38.866;2023-05-13T00:51:26;99940.0;;;6.6;85.5
28456;BME280;15682;56.742;38.866;2023-05-13T00:53:26;99940.0;;;6.6;86.2
28456;BME280;15682;56.742;38.866;2023-05-13T00:55:26;99950.0;;;6.6;85.6
28456;BME280;15682;56.742;38.866;2023-05-13T00:57:26;99950.0;;;6.6;85.7
28456;BME280;15682;56.742;38.866;2023-05-13T00:59:28;99950.0;;;6.6;85.7
28456;BME280;15682;56.742;38.866;2023-05-13T01:01:33;99950.0;;;6.6;85.7
28456;BME280;15682;56.742;38.866;2023-05-13T01:03:33;99950.0;;;6.7;86.6
28456;BME280;15682;56.742;38.866;2023-05-13T01:05:32;99950.0;;;6.6;85.4
28456;BME280;15682;56.742;38.866;2023-05-13T01:07:41;99950.0;;;6.6;86.9
28456;BME280;15682;56.742;38.866;2023-05-13T01:09:35;99950.0;;;6.6;86.3
28456;BME280;15682;56.742;38.866;2023-05-13T01:11:29;99950.0;;;6.6;85.6
28456;BME280;15682;56.742;38.866;2023-05-13T01:13:32;99950.0;;;6.5;85.6
28456;BME280;15682;56.742;38.866;2023-05-13T01:15:28;99950.0;;;6.5;85.6
28456;BME280;15682;56.742;38.866;2023-05-13T01:17:31;99950.0;;;6.5;86.1
28456;BME280;15682;56.742;38.866;2023-05-13T01:19:37;99950.0;;;6.5;86.1
28456;BME280;15682;56.742;38.866;2023-05-13T01:21:28;99950.0;;;6.5;86.1
28456;BME280;15682;56.742;38.866;2023-05-13T01:23:27;99950.0;;;6.5;85.8
28456;BME280;15682;56.742;38.866;2023-05-13T01:25:27;99950.0;;;6.5;85.8
28456;BME280;15682;56.742;38.866;2023-05-13T01:27:27;99950.0;;;6.5;85.9
28456;BME280;15682;56.742;38.866;2023-05-13T01:29:28;99950.0;;;6.5;85.9
28456;BME280;15682;56.742;38.866;2023-05-13T01:31:28;99950.0;;;6.5;85.9
28456;BME280;15682;56.742;38.866;2023-05-13T01:33:29;99950.0;;;6.5;85.9
28456;BME280;15682;56.742;38.866;2023-05-13T01:35:28;99950.0;;;6.5;85.9
28456;BME280;15682;56.742;38.866;2023-05-13T01:37:28;99950.0;;;6.5;85.8
28456;BME280;15682;56.742;38.866;2023-05-13T01:39:29;99950.0;;;6.5;85.8
28456;BME280;15682;56.742;38.866;2023-05-13T01:41:28;99950.0;;;6.5;85.8
28456;BME280;15682;56.742;38.866;2023-05-13T01:43:28;99950.0;;;6.5;85.8
28456;BME280;15682;56.742;38.866;2023-05-13T01:45:29;99960.0;;;6.5;85.8
28456;BME280;15682;56.742;38.866;2023-05-13T01:47:28;99960.0;;;6.5;86.1
28456;BME280;15682;56.742;38.866;2023-05-13T01:49:28;99960.0;;;6.3;86.4
28456;BME280;15682;56.742;38.866;2023-05-13T01:51:28;99960.0;;;6.3;86.4
28456;BME280;15682;56.742;38.866;2023-05-13T01:53:29;99960.0;;;6.3;86.4
28456;BME280;15682;56.742;38.866;2023-05-13T01:55:29;99960.0;;;6.4;86.4
28456;BME280;15682;56.742;38.866;2023-05-13T01:57:29;99960.0;;;6.4;86.5
28456;BME280;15682;56.742;38.866;2023-05-13T01:59:29;99960.0;;;6.4;86.5
28456;BME280;15682;56.742;38.866;2023-05-13T02:01:29;99960.0;;;6.5;86.5
28456;BME280;15682;56.742;38.866;2023-05-13T02:03:29;99960.0;;;6.5;86.5
28456;BME280;15682;56.742;38.866;2023-05-13T02:05:29;99960.0;;;6.5;86.5
28456;BME280;15682;56.742;38.866;2023-05-13T02:07:29;99960.0;;;6.6;85.8
28456;BME280;15682;56.742;38.866;2023-05-13T02:09:29;99960.0;;;6.6;85.8
28456;BME280;15682;56.742;38.866;2023-05-13T02:11:29;99960.0;;;6.7;85.8
28456;BME280;15682;56.742;38.866;2023-05-13T02:13:30;99960.0;;;6.7;85.2
28456;BME280;15682;56.742;38.866;2023-05-13T02:15:30;99960.0;;;6.7;85.2
28456;BME280;15682;56.742;38.866;2023-05-13T02:17:30;99960.0;;;6.7;85.0
28456;BME280;15682;56.742;38.866;2023-05-13T02:19:30;99970.0;;;6.8;85.0
28456;BME280;15682;56.742;38.866;2023-05-13T02:21:30;99970.0;;;6.8;85.0
28456;BME280;15682;56.742;38.866;2023-05-13T02:23:30;99970.0;;;6.9;84.6
28456;BME280;15682;56.742;38.866;2023-05-13T02:25:30;99970.0;;;7.0;84.6
28456;BME280;15682;56.742;38.866;2023-05-13T02:27:30;99970.0;;;7.1;84.8
28456;BME280;15682;56.742;38.866;2023-05-13T02:29:30;99970.0;;;7.1;84.8
28456;BME280;15682;56.742;38.866;2023-05-13T02:31:30;99970.0;;;7.1;84.8
28456;BME280;15682;56.742;38.866;2023-05-13T02:33:31;99970.0;;;7.1;84.8
28456;BME280;15682;56.742;38.866;2023-05-13T02:35:31;99970.0;;;7.3;84.8
28456;BME280;15682;56.742;38.866;2023-05-13T02:37:31;99970.0;;;7.5;83.8
28456;BME280;15682;56.742;38.866;2023-05-13T02:39:31;99970.0;;;7.6;83.8
28456;BME280;15682;56.742;38.866;2023-05-13T02:41:31;99970.0;;;7.7;82.4
28456;BME280;15682;56.742;38.866;2023-05-13T02:43:31;99970.0;;;7.7;81.5
28456;BME280;15682;56.742;38.866;2023-05-13T02:45:32;99970.0;;;7.7;81.5
28456;BME280;15682;56.742;38.866;2023-05-13T02:47:31;99970.0;;;7.7;80.8
28456;BME280;15682;56.742;38.866;2023-05-13T02:49:31;99970.0;;;7.8;80.8
28456;BME280;15682;56.742;38.866;2023-05-13T02:51:32;99970.0;;;7.8;80.8
28456;BME280;15682;56.742;38.866;2023-05-13T02:53:32;99970.0;;;7.8;80.1
28456;BME280;15682;56.742;38.866;2023-05-13T02:55:32;99970.0;;;8.0;80.1
28456;BME280;15682;56.742;38.866;2023-05-13T02:57:32;99970.0;;;8.1;80.0
28456;BME280;15682;56.742;38.866;2023-05-13T02:59:32;99980.0;;;8.2;79.5
28456;BME280;15682;56.742;38.866;2023-05-13T03:01:32;99980.0;;;8.3;78.9
28456;BME280;15682;56.742;38.866;2023-05-13T03:03:32;99980.0;;;8.3;78.9
28456;BME280;15682;56.742;38.866;2023-05-13T03:05:33;99980.0;;;8.5;78.1
28456;BME280;15682;56.742;38.866;2023-05-13T03:07:33;99980.0;;;8.8;77.2
28456;BME280;15682;56.742;38.866;2023-05-13T03:09:33;99980.0;;;9.1;76.4
28456;BME280;15682;56.742;38.866;2023-05-13T03:11:33;99980.0;;;9.4;75.2
28456;BME280;15682;56.742;38.866;2023-05-13T03:13:33;99980.0;;;9.8;75.2
28456;BME280;15682;56.742;38.866;2023-05-13T03:15:33;99980.0;;;10.2;70.3
28456;BME280;15682;56.742;38.866;2023-05-13T03:17:34;99980.0;;;10.3;69.7
28456;BME280;15682;56.742;38.866;2023-05-13T03:19:35;99980.0;;;10.6;68.9
28456;BME280;15682;56.742;38.866;2023-05-13T03:21:34;99980.0;;;10.6;68.8
28456;BME280;15682;56.742;38.866;2023-05-13T03:23:34;99980.0;;;10.7;68.3
28456;BME280;15682;56.742;38.866;2023-05-13T03:25:35;99980.0;;;10.7;68.2
28456;BME280;15682;56.742;38.866;2023-05-13T03:27:35;99980.0;;;10.9;67.2
28456;BME280;15682;56.742;38.866;2023-05-13T03:29:35;99980.0;;;10.9;67.2
28456;BME280;15682;56.742;38.866;2023-05-13T03:31:36;99980.0;;;10.9;67.2
28456;BME280;15682;56.742;38.866;2023-05-13T03:33:36;99980.0;;;10.9;66.2
28456;BME280;15682;56.742;38.866;2023-05-13T03:35:36;99980.0;;;10.9;66.7
28456;BME280;15682;56.742;38.866;2023-05-13T03:37:36;99990.0;;;11.0;65.5
28456;BME280;15682;56.742;38.866;2023-05-13T03:39:37;99990.0;;;11.0;64.9
28456;BME280;15682;56.742;38.866;2023-05-13T03:41:37;99990.0;;;11.0;64.9
28456;BME280;15682;56.742;38.866;2023-05-13T03:43:37;99990.0;;;11.2;64.9
28456;BME280;15682;56.742;38.866;2023-05-13T03:45:38;99990.0;;;11.2;64.8
28456;BME280;15682;56.742;38.866;2023-05-13T03:47:38;99990.0;;;11.2;64.2
28456;BME280;15682;56.742;38.866;2023-05-13T03:49:38;99990.0;;;11.3;63.9
28456;BME280;15682;56.742;38.866;2023-05-13T03:51:39;99990.0;;;11.3;63.9
28456;BME280;15682;56.742;38.866;2023-05-13T03:53:39;99990.0;;;11.3;63.2
28456;BME280;15682;56.742;38.866;2023-05-13T03:55:40;99990.0;;;11.5;63.7
28456;BME280;15682;56.742;38.866;2023-05-13T03:57:40;99990.0;;;11.6;62.6
28456;BME280;15682;56.742;38.866;2023-05-13T03:59:41;99990.0;;;11.5;62.6
28456;BME280;15682;56.742;38.866;2023-05-13T04:01:41;99990.0;;;11.5;62.6
28456;BME280;15682;56.742;38.866;2023-05-13T04:03:42;99990.0;;;11.5;61.6
28456;BME280;15682;56.742;38.866;2023-05-13T04:05:44;99990.0;;;11.5;62.3
28456;BME280;15682;56.742;38.866;2023-05-13T04:07:43;99990.0;;;11.5;62.3
28456;BME280;15682;56.742;38.866;2023-05-13T04:09:44;99990.0;;;11.6;62.3
28456;BME280;15682;56.742;38.866;2023-05-13T04:11:44;100000.0;;;11.8;61.8
28456;BME280;15682;56.742;38.866;2023-05-13T04:13:45;100000.0;;;11.8;62.5
28456;BME280;15682;56.742;38.866;2023-05-13T04:15:45;100000.0;;;11.8;61.7
28456;BME280;15682;56.742;38.866;2023-05-13T04:17:46;100000.0;;;11.9;61.7
28456;BME280;15682;56.742;38.866;2023-05-13T04:19:47;100000.0;;;11.9;61.0
28456;BME280;15682;56.742;38.866;2023-05-13T04:21:47;100000.0;;;11.9;61.0
28456;BME280;15682;56.742;38.866;2023-05-13T04:23:48;100000.0;;;12.1;60.3
28456;BME280;15682;56.742;38.866;2023-05-13T04:25:49;100000.0;;;12.1;60.8
28456;BME280;15682;56.742;38.866;2023-05-13T04:27:49;100000.0;;;12.3;59.7
28456;BME280;15682;56.742;38.866;2023-05-13T04:29:50;100000.0;;;12.2;59.7
28456;BME280;15682;56.742;38.866;2023-05-13T04:31:50;100000.0;;;12.2;59.7
28456;BME280;15682;56.742;38.866;2023-05-13T04:33:51;100000.0;;;12.2;59.7
28456;BME280;15682;56.742;38.866;2023-05-13T04:35:52;100000.0;;;12.4;58.3
28456;BME280;15682;56.742;38.866;2023-05-13T04:37:52;99990.0;;;12.4;58.9
28456;BME280;15682;56.742;38.866;2023-05-13T04:39:53;99990.0;;;12.4;58.9
28456;BME280;15682;56.742;38.866;2023-05-13T04:41:53;99990.0;;;12.4;58.1
28456;BME280;15682;56.742;38.866;2023-05-13T04:43:54;99990.0;;;12.6;57.9
28456;BME280;15682;56.742;38.866;2023-05-13T04:45:55;99990.0;;;12.6;58.5
28456;BME280;15682;56.742;38.866;2023-05-13T04:47:56;99990.0;;;12.8;57.4
28456;BME280;15682;56.742;38.866;2023-05-13T04:49:56;99990.0;;;12.7;56.7
28456;BME280;15682;56.742;38.866;2023-05-13T04:51:57;99990.0;;;12.7;56.7
28456;BME280;15682;56.742;38.866;2023-05-13T04:53:57;99990.0;;;12.7;56.2
28456;BME280;15682;56.742;38.866;2023-05-13T04:55:58;99990.0;;;12.7;56.1
28456;BME280;15682;56.742;38.866;2023-05-13T04:57:59;99990.0;;;12.9;54.9
28456;BME280;15682;56.742;38.866;2023-05-13T05:00:00;99990.0;;;13.1;55.5
28456;BME280;15682;56.742;38.866;2023-05-13T05:02:00;99990.0;;;13.2;54.3
28456;BME280;15682;56.742;38.866;2023-05-13T05:04:01;99990.0;;;13.2;54.3
28456;BME280;15682;56.742;38.866;2023-05-13T05:06:02;99990.0;;;13.2;54.9
28456;BME280;15682;56.742;38.866;2023-05-13T05:08:02;99990.0;;;13.4;54.0
28456;BME280;15682;56.742;38.866;2023-05-13T05:10:03;99990.0;;;13.5;54.0
28456;BME280;15682;56.742;38.866;2023-05-13T05:12:04;99990.0;;;13.6;53.1
28456;BME280;15682;56.742;38.866;2023-05-13T05:14:04;99990.0;;;13.6;53.1
28456;BME280;15682;56.742;38.866;2023-05-13T05:16:05;99990.0;;;13.6;53.3
28456;BME280;15682;56.742;38.866;2023-05-13T05:18:06;99990.0;;;13.6;52.5
28456;BME280;15682;56.742;38.866;2023-05-13T05:20:08;99990.0;;;13.8;52.5
28456;BME280;15682;56.742;38.866;2023-05-13T05:22:07;99990.0;;;13.9;53.1
28456;BME280;15682;56.742;38.866;2023-05-13T05:24:08;99990.0;;;13.9;51.6
28456;BME280;15682;56.742;38.866;2023-05-13T05:26:09;99990.0;;;13.9;52.7
28456;BME280;15682;56.742;38.866;2023-05-13T05:28:09;99990.0;;;14.0;52.7
28456;BME280;15682;56.742;38.866;2023-05-13T05:30:11;99990.0;;;14.1;52.0
28456;BME280;15682;56.742;38.866;2023-05-13T05:32:11;99980.0;;;14.3;51.9
28456;BME280;15682;56.742;38.866;2023-05-13T05:34:12;99980.0;;;14.3;51.9
28456;BME280;15682;56.742;38.866;2023-05-13T05:36:12;99980.0;;;14.4;51.7
28456;BME280;15682;56.742;38.866;2023-05-13T05:38:13;99980.0;;;14.6;51.4
28456;BME280;15682;56.742;38.866;2023-05-13T05:40:14;99980.0;;;14.6;51.4
28456;BME280;15682;56.742;38.866;2023-05-13T05:42:15;99990.0;;;14.7;51.4
28456;BME280;15682;56.742;38.866;2023-05-13T05:44:15;99990.0;;;14.7;51.4
28456;BME280;15682;56.742;38.866;2023-05-13T05:46:16;99990.0;;;14.7;50.7
28456;BME280;15682;56.742;38.866;2023-05-13T05:48:17;99990.0;;;14.9;50.7
28456;BME280;15682;56.742;38.866;2023-05-13T05:50:17;99990.0;;;15.1;50.7
28456;BME280;15682;56.742;38.866;2023-05-13T05:52:18;99990.0;;;15.2;50.7
28456;BME280;15682;56.742;38.866;2023-05-13T05:54:19;99990.0;;;15.2;50.7
28456;BME280;15682;56.742;38.866;2023-05-13T05:56:20;99990.0;;;15.4;49.4
28456;BME280;15682;56.742;38.866;2023-05-13T05:58:20;99990.0;;;15.4;49.4
28456;BME280;15682;56.742;38.866;2023-05-13T06:00:21;99990.0;;;15.4;49.4
28456;BME280;15682;56.742;38.866;2023-05-13T06:02:22;99990.0;;;15.4;48.8
28456;BME280;15682;56.742;38.866;2023-05-13T06:04:23;99990.0;;;15.5;48.8
28456;BME280;15682;56.742;38.866;2023-05-13T06:06:23;99990.0;;;15.5;48.8
28456;BME280;15682;56.742;38.866;2023-05-13T06:08:24;99990.0;;;15.7;48.1
28456;BME280;15682;56.742;38.866;2023-05-13T06:10:25;99990.0;;;15.8;48.1
28456;BME280;15682;56.742;38.866;2023-05-13T06:12:26;99990.0;;;15.8;48.1
28456;BME280;15682;56.742;38.866;2023-05-13T06:14:26;99990.0;;;15.9;48.1
28456;BME280;15682;56.742;38.866;2023-05-13T06:16:27;99990.0;;;16.1;46.8
28456;BME280;15682;56.742;38.866;2023-05-13T06:18:28;99990.0;;;16.1;48.0
28456;BME280;15682;56.742;38.866;2023-05-13T06:20:29;99990.0;;;16.1;47.4
28456;BME280;15682;56.742;38.866;2023-05-13T06:22:29;99990.0;;;16.1;46.4
28456;BME280;15682;56.742;38.866;2023-05-13T06:24:30;99990.0;;;16.2;47.0
28456;BME280;15682;56.742;38.866;2023-05-13T06:26:31;99990.0;;;16.2;47.0
28456;BME280;15682;56.742;38.866;2023-05-13T06:28:32;99990.0;;;16.2;46.4
28456;BME280;15682;56.742;38.866;2023-05-13T06:30:32;99990.0;;;16.4;46.4
28456;BME280;15682;56.742;38.866;2023-05-13T06:32:33;99990.0;;;16.5;46.4
28456;BME280;15682;56.742;38.866;2023-05-13T06:34:34;99990.0;;;16.5;46.4
28456;BME280;15682;56.742;38.866;2023-05-13T06:36:35;99990.0;;;16.5;45.7
28456;BME280;15682;56.742;38.866;2023-05-13T06:38:35;99990.0;;;16.7;45.7
28456;BME280;15682;56.742;38.866;2023-05-13T06:40:36;99990.0;;;16.8;44.6
28456;BME280;15682;56.742;38.866;2023-05-13T06:42:37;99990.0;;;16.8;45.3
28456;BME280;15682;56.742;38.866;2023-05-13T06:44:38;99990.0;;;17.0;44.6
28456;BME280;15682;56.742;38.866;2023-05-13T06:46:38;99990.0;;;17.1;45.2
28456;BME280;15682;56.742;38.866;2023-05-13T06:48:39;100000.0;;;17.3;44.2
28456;BME280;15682;56.742;38.866;2023-05-13T06:50:40;100000.0;;;17.3;44.2
28456;BME280;15682;56.742;38.866;2023-05-13T06:52:41;100000.0;;;17.4;43.6
28456;BME280;15682;56.742;38.866;2023-05-13T06:54:42;100000.0;;;17.4;44.1
28456;BME280;15682;56.742;38.866;2023-05-13T06:56:42;100000.0;;;17.4;44.1
28456;BME280;15682;56.742;38.866;2023-05-13T06:58:43;100000.0;;;17.3;43.6
28456;BME280;15682;56.742;38.866;2023-05-13T07:00:46;100000.0;;;17.5;43.8
28456;BME280;15682;56.742;38.866;2023-05-13T07:02:45;100000.0;;;17.7;43.2
28456;BME280;15682;56.742;38.866;2023-05-13T07:04:46;100000.0;;;17.6;43.0
28456;BME280;15682;56.742;38.866;2023-05-13T07:06:46;100000.0;;;17.6;43.0
28456;BME280;15682;56.742;38.866;2023-05-13T07:08:47;100000.0;;;17.7;43.0
28456;BME280;15682;56.742;38.866;2023-05-13T07:10:48;100000.0;;;17.7;42.3
28456;BME280;15682;56.742;38.866;2023-05-13T07:12:49;100000.0;;;17.8;42.3
28456;BME280;15682;56.742;38.866;2023-05-13T07:14:49;100000.0;;;17.8;42.1
28456;BME280;15682;56.742;38.866;2023-05-13T07:16:50;100000.0;;;17.8;42.6
28456;BME280;15682;56.742;38.866;2023-05-13T07:18:51;100000.0;;;17.9;41.7
28456;BME280;15682;56.742;38.866;2023-05-13T07:20:52;100000.0;;;18.0;42.5
28456;BME280;15682;56.742;38.866;2023-05-13T07:22:52;100000.0;;;18.4;41.9
28456;BME280;15682;56.742;38.866;2023-05-13T07:24:53;100000.0;;;18.4;41.0
28456;BME280;15682;56.742;38.866;2023-05-13T07:26:54;100000.0;;;18.6;41.0
28456;BME280;15682;56.742;38.866;2023-05-13T07:28:55;100000.0;;;18.8;40.9
28456;BME280;15682;56.742;38.866;2023-05-13T07:30:55;100000.0;;;18.6;40.9
28456;BME280;15682;56.742;38.866;2023-05-13T07:32:55;100000.0;;;18.6;40.9
28456;BME280;15682;56.742;38.866;2023-05-13T07:34:56;100000.0;;;18.6;40.9
28456;BME280;15682;56.742;38.866;2023-05-13T07:36:57;100000.0;;;18.8;41.3
28456;BME280;15682;56.742;38.866;2023-05-13T07:38:57;100000.0;;;18.8;41.3
28456;BME280;15682;56.742;38.866;2023-05-13T07:40:58;100000.0;;;18.9;41.3
28456;BME280;15682;56.742;38.866;2023-05-13T07:42:58;100000.0;;;19.2;41.5
28456;BME280;15682;56.742;38.866;2023-05-13T07:44:59;100000.0;;;19.2;41.5
28456;BME280;15682;56.742;38.866;2023-05-13T07:46:59;100000.0;;;19.6;40.5
28456;BME280;15682;56.742;38.866;2023-05-13T07:49:00;100000.0;;;19.8;40.5
28456;BME280;15682;56.742;38.866;2023-05-13T07:51:01;99990.0;;;19.8;39.9
28456;BME280;15682;56.742;38.866;2023-05-13T07:53:02;99990.0;;;19.8;39.7
28456;BME280;15682;56.742;38.866;2023-05-13T07:55:01;99990.0;;;20.0;39.1
28456;BME280;15682;56.742;38.866;2023-05-13T07:57:02;99990.0;;;20.1;39.7
28456;BME280;15682;56.742;38.866;2023-05-13T07:59:03;100000.0;;;20.0;40.9
28456;BME280;15682;56.742;38.866;2023-05-13T08:01:03;100000.0;;;20.2;40.9
28456;BME280;15682;56.742;38.866;2023-05-13T08:03:04;100000.0;;;19.9;40.9
28456;BME280;15682;56.742;38.866;2023-05-13T08:05:05;100000.0;;;19.9;40.9
28456;BME280;15682;56.742;38.866;2023-05-13T08:07:05;100000.0;;;20.3;40.4
28456;BME280;15682;56.742;38.866;2023-05-13T08:09:05;100000.0;;;20.5;39.7
28456;BME280;15682;56.742;38.866;2023-05-13T08:11:06;100000.0;;;20.7;40.3
28456;BME280;15682;56.742;38.866;2023-05-13T08:13:06;100000.0;;;20.8;40.9
28456;BME280;15682;56.742;38.866;2023-05-13T08:15:07;100000.0;;;20.8;40.8
28456;BME280;15682;56.742;38.866;2023-05-13T08:17:07;100000.0;;;20.5;41.5
28456;BME280;15682;56.742;38.866;2023-05-13T08:19:08;100000.0;;;20.4;42.7
28456;BME280;15682;56.742;38.866;2023-05-13T08:21:08;100000.0;;;20.6;42.9
28456;BME280;15682;56.742;38.866;2023-05-13T08:23:09;100000.0;;;20.6;41.7
28456;BME280;15682;56.742;38.866;2023-05-13T08:25:09;100000.0;;;20.7;41.7
28456;BME280;15682;56.742;38.866;2023-05-13T08:27:10;100000.0;;;20.7;41.5
28456;BME280;15682;56.742;38.866;2023-05-13T08:29:10;99990.0;;;20.8;41.5
28456;BME280;15682;56.742;38.866;2023-05-13T08:31:11;99990.0;;;20.8;42.3
28456;BME280;15682;56.742;38.866;2023-05-13T08:33:11;99990.0;;;20.9;41.7
28456;BME280;15682;56.742;38.866;2023-05-13T08:35:11;99990.0;;;21.2;40.6
28456;BME280;15682;56.742;38.866;2023-05-13T08:37:12;99980.0;;;21.1;40.6
28456;BME280;15682;56.742;38.866;2023-05-13T08:39:12;99980.0;;;21.0;40.6
28456;BME280;15682;56.742;38.866;2023-05-13T08:41:13;99980.0;;;21.1;40.6
28456;BME280;15682;56.742;38.866;2023-05-13T08:43:14;99970.0;;;21.5;40.6
28456;BME280;15682;56.742;38.866;2023-05-13T08:45:14;99970.0;;;21.4;41.2
28456;BME280;15682;56.742;38.866;2023-05-13T08:47:21;99970.0;;;21.6;40.4
28456;BME280;15682;56.742;38.866;2023-05-13T08:49:15;99980.0;;;21.7;40.4
28456;BME280;15682;56.742;38.866;2023-05-13T08:51:15;99970.0;;;21.8;40.4
28456;BME280;15682;56.742;38.866;2023-05-13T08:53:16;99970.0;;;22.0;40.5
28456;BME280;15682;56.742;38.866;2023-05-13T08:55:16;99970.0;;;22.3;39.7
28456;BME280;15682;56.742;38.866;2023-05-13T08:57:17;99970.0;;;22.1;39.2
28456;BME280;15682;56.742;38.866;2023-05-13T08:59:17;99970.0;;;22.2;39.2
28456;BME280;15682;56.742;38.866;2023-05-13T09:01:18;99970.0;;;22.2;38.6
28456;BME280;15682;56.742;38.866;2023-05-13T09:03:19;99970.0;;;22.4;38.2
28456;BME280;15682;56.742;38.866;2023-05-13T09:05:19;99970.0;;;22.4;39.7
28456;BME280;15682;56.742;38.866;2023-05-13T09:07:19;99970.0;;;22.5;38.1
28456;BME280;15682;56.742;38.866;2023-05-13T09:09:19;99970.0;;;22.5;38.1
28456;BME280;15682;56.742;38.866;2023-05-13T09:11:20;99970.0;;;22.8;38.7
28456;BME280;15682;56.742;38.866;2023-05-13T09:13:21;99960.0;;;23.0;38.7
28456;BME280;15682;56.742;38.866;2023-05-13T09:15:23;99960.0;;;23.4;38.7
28456;BME280;15682;56.742;38.866;2023-05-13T09:17:21;99960.0;;;23.1;36.3
28456;BME280;15682;56.742;38.866;2023-05-13T09:19:23;99960.0;;;23.1;35.1
28456;BME280;15682;56.742;38.866;2023-05-13T09:21:23;99960.0;;;22.7;37.6
28456;BME280;15682;56.742;38.866;2023-05-13T09:23:23;99960.0;;;23.2;37.4
28456;BME280;15682;56.742;38.866;2023-05-13T09:25:24;99960.0;;;23.1;38.4
28456;BME280;15682;56.742;38.866;2023-05-13T09:27:35;99960.0;;;23.3;38.1
28456;BME280;15682;56.742;38.866;2023-05-13T09:29:26;99960.0;;;22.9;37.7
28456;BME280;15682;56.742;38.866;2023-05-13T09:31:31;99950.0;;;22.9;38.3
28456;BME280;15682;56.742;38.866;2023-05-13T09:33:29;99950.0;;;23.0;37.5
28456;BME280;15682;56.742;38.866;2023-05-13T09:35:26;99940.0;;;22.9;37.5
28456;BME280;15682;56.742;38.866;2023-05-13T09:37:26;99940.0;;;22.2;37.9
28456;BME280;15682;56.742;38.866;2023-05-13T09:39:27;99940.0;;;22.7;36.7
28456;BME280;15682;56.742;38.866;2023-05-13T09:41:29;99940.0;;;23.0;36.7
28456;BME280;15682;56.742;38.866;2023-05-13T09:43:31;99950.0;;;23.0;36.1
28456;BME280;15682;56.742;38.866;2023-05-13T09:45:31;99950.0;;;22.8;36.1
28456;BME280;15682;56.742;38.866;2023-05-13T09:47:29;99950.0;;;22.6;35.8
28456;BME280;15682;56.742;38.866;2023-05-13T09:49:30;99950.0;;;22.4;36.8
28456;BME280;15682;56.742;38.866;2023-05-13T09:51:30;99950.0;;;22.5;34.9
28456;BME280;15682;56.742;38.866;2023-05-13T09:53:30;99950.0;;;22.4;35.4
28456;BME280;15682;56.742;38.866;2023-05-13T09:55:31;99950.0;;;22.6;35.4
28456;BME280;15682;56.742;38.866;2023-05-13T09:57:31;99950.0;;;22.8;35.8
28456;BME280;15682;56.742;38.866;2023-05-13T09:59:32;99950.0;;;22.5;36.6
28456;BME280;15682;56.742;38.866;2023-05-13T10:01:34;99950.0;;;22.5;37.5
28456;BME280;15682;56.742;38.866;2023-05-13T10:03:33;99950.0;;;22.3;37.5
28456;BME280;15682;56.742;38.866;2023-05-13T10:05:33;99950.0;;;22.1;38.1
28456;BME280;15682;56.742;38.866;2023-05-13T10:07:34;99950.0;;;22.5;37.3
28456;BME280;15682;56.742;38.866;2023-05-13T10:09:35;99940.0;;;22.5;35.5
28456;BME280;15682;56.742;38.866;2023-05-13T10:11:35;99940.0;;;22.7;36.7
28456;BME280;15682;56.742;38.866;2023-05-13T10:13:35;99940.0;;;22.9;36.7
28456;BME280;15682;56.742;38.866;2023-05-13T10:15:35;99940.0;;;22.9;36.7
28456;BME280;15682;56.742;38.866;2023-05-13T10:17:36;99940.0;;;22.9;36.6
28456;BME280;15682;56.742;38.866;2023-05-13T10:19:37;99940.0;;;22.9;36.2
28456;BME280;15682;56.742;38.866;2023-05-13T10:21:37;99930.0;;;22.7;37.1
28456;BME280;15682;56.742;38.866;2023-05-13T10:23:37;99930.0;;;22.3;37.9
28456;BME280;15682;56.742;38.866;2023-05-13T10:25:38;99930.0;;;22.6;36.6
28456;BME280;15682;56.742;38.866;2023-05-13T10:27:38;99930.0;;;22.6;35.7
28456;BME280;15682;56.742;38.866;2023-05-13T10:29:38;99920.0;;;22.7;35.0
28456;BME280;15682;56.742;38.866;2023-05-13T10:31:40;99910.0;;;22.6;35.0
28456;BME280;15682;56.742;38.866;2023-05-13T10:33:40;99910.0;;;23.2;35.1
28456;BME280;15682;56.742;38.866;2023-05-13T10:35:45;99920.0;;;23.3;35.1
28456;BME280;15682;56.742;38.866;2023-05-13T10:37:59;99920.0;;;22.7;36.4
28456;BME280;15682;56.742;38.866;2023-05-13T10:39:58;99920.0;;;22.3;38.5
28456;BME280;15682;56.742;38.866;2023-05-13T10:42:04;99920.0;;;22.5;38.5
28456;BME280;15682;56.742;38.866;2023-05-13T10:43:42;99920.0;;;22.7;37.1
28456;BME280;15682;56.742;38.866;2023-05-13T10:45:44;99920.0;;;22.6;37.0
28456;BME280;15682;56.742;38.866;2023-05-13T10:47:43;99920.0;;;22.6;36.4
28456;BME280;15682;56.742;38.866;2023-05-13T10:49:49;99920.0;;;23.0;36.5
28456;BME280;15682;56.742;38.866;2023-05-13T10:51:44;99920.0;;;23.1;35.2
28456;BME280;15682;56.742;38.866;2023-05-13T10:53:47;99920.0;;;23.1;36.1
28456;BME280;15682;56.742;38.866;2023-05-13T10:55:44;99920.0;;;23.1;36.7